sensor_id;sensor_type;location;lat;lon;timestamp;P1;durP1;ratioP1;P2;durP2;ratioP2
29452;SDS011;16424;50.956;5.320;2023-03-01T00:01:02;12.90;;;8.38;;
29452;SDS011;16424;50.956;5.320;2023-03-01T00:03:29;12.73;;;7.88;;
29452;SDS011;16424;50.956;5.320;2023-03-01T00:05:54;35.67;;;8.93;;
29452;SDS011;16424;50.956;5.320;2023-03-01T00:08:20;12.40;;;8.00;;
29452;SDS011;16424;50.956;5.320;2023-03-01T00:10:45;13.95;;;8.02;;
29452;SDS011;16424;50.956;5.320;2023-03-01T00:13:11;12.05;;;8.40;;
29452;SDS011;16424;50.956;5.320;2023-03-01T00:15:40;14.10;;;9.02;;
29452;SDS011;16424;50.956;5.320;2023-03-01T00:18:08;16.80;;;8.73;;
29452;SDS011;16424;50.956;5.320;2023-03-01T00:20:34;15.77;;;7.80;;
29452;SDS011;16424;50.956;5.320;2023-03-01T00:23:00;14.48;;;8.55;;
29452;SDS011;16424;50.956;5.320;2023-03-01T00:25:26;16.15;;;8.77;;
29452;SDS011;16424;50.956;5.320;2023-03-01T00:27:51;13.50;;;8.02;;
29452;SDS011;16424;50.956;5.320;2023-03-01T00:30:17;12.23;;;8.27;;
29452;SDS011;16424;50.956;5.320;2023-03-01T00:32:43;14.02;;;8.50;;
29452;SDS011;16424;50.956;5.320;2023-03-01T00:35:08;15.23;;;7.85;;
29452;SDS011;16424;50.956;5.320;2023-03-01T00:37:34;15.57;;;8.68;;
29452;SDS011;16424;50.956;5.320;2023-03-01T00:40:00;14.02;;;8.27;;
29452;SDS011;16424;50.956;5.320;2023-03-01T00:42:25;16.00;;;8.48;;
29452;SDS011;16424;50.956;5.320;2023-03-01T00:44:51;16.05;;;7.60;;
29452;SDS011;16424;50.956;5.320;2023-03-01T00:47:16;16.17;;;8.73;;
29452;SDS011;16424;50.956;5.320;2023-03-01T00:49:42;13.23;;;8.30;;
29452;SDS011;16424;50.956;5.320;2023-03-01T00:52:08;14.38;;;8.57;;
29452;SDS011;16424;50.956;5.320;2023-03-01T00:54:33;11.05;;;7.65;;
29452;SDS011;16424;50.956;5.320;2023-03-01T00:56:59;16.60;;;9.50;;
29452;SDS011;16424;50.956;5.320;2023-03-01T00:59:25;10.15;;;7.63;;
29452;SDS011;16424;50.956;5.320;2023-03-01T01:01:50;14.63;;;8.40;;
29452;SDS011;16424;50.956;5.320;2023-03-01T01:04:16;15.65;;;8.18;;
29452;SDS011;16424;50.956;5.320;2023-03-01T01:06:43;15.88;;;8.52;;
29452;SDS011;16424;50.956;5.320;2023-03-01T01:09:11;14.23;;;8.60;;
29452;SDS011;16424;50.956;5.320;2023-03-01T01:11:42;15.02;;;8.40;;
29452;SDS011;16424;50.956;5.320;2023-03-01T01:14:12;20.17;;;9.45;;
29452;SDS011;16424;50.956;5.320;2023-03-01T01:16:39;16.45;;;8.68;;
29452;SDS011;16424;50.956;5.320;2023-03-01T01:19:05;16.77;;;9.15;;
29452;SDS011;16424;50.956;5.320;2023-03-01T01:21:31;17.00;;;9.75;;
29452;SDS011;16424;50.956;5.320;2023-03-01T01:23:57;15.55;;;9.18;;
29452;SDS011;16424;50.956;5.320;2023-03-01T01:26:28;16.40;;;9.10;;
29452;SDS011;16424;50.956;5.320;2023-03-01T01:28:55;14.25;;;9.27;;
29452;SDS011;16424;50.956;5.320;2023-03-01T01:31:21;17.85;;;9.07;;
29452;SDS011;16424;50.956;5.320;2023-03-01T01:33:51;16.60;;;9.45;;
29452;SDS011;16424;50.956;5.320;2023-03-01T01:36:17;15.52;;;9.35;;
29452;SDS011;16424;50.956;5.320;2023-03-01T01:38:43;16.05;;;9.25;;
29452;SDS011;16424;50.956;5.320;2023-03-01T01:41:10;11.38;;;8.82;;
29452;SDS011;16424;50.956;5.320;2023-03-01T01:43:38;16.00;;;9.30;;
29452;SDS011;16424;50.956;5.320;2023-03-01T01:48:57;13.77;;;9.70;;
29452;SDS011;16424;50.956;5.320;2023-03-01T01:51:31;14.27;;;9.55;;
29452;SDS011;16424;50.956;5.320;2023-03-01T01:54:05;18.98;;;10.20;;
29452;SDS011;16424;50.956;5.320;2023-03-01T01:56:36;14.07;;;8.60;;
29452;SDS011;16424;50.956;5.320;2023-03-01T01:59:03;12.63;;;9.52;;
29452;SDS011;16424;50.956;5.320;2023-03-01T02:01:29;12.77;;;9.98;;
29452;SDS011;16424;50.956;5.320;2023-03-01T02:03:55;18.85;;;10.02;;
29452;SDS011;16424;50.956;5.320;2023-03-01T02:06:39;12.02;;;8.73;;
29452;SDS011;16424;50.956;5.320;2023-03-01T02:09:21;13.82;;;9.32;;
29452;SDS011;16424;50.956;5.320;2023-03-01T02:11:48;17.48;;;9.32;;
29452;SDS011;16424;50.956;5.320;2023-03-01T02:14:16;14.60;;;10.27;;
29452;SDS011;16424;50.956;5.320;2023-03-01T02:16:42;20.83;;;9.63;;
29452;SDS011;16424;50.956;5.320;2023-03-01T02:19:08;17.27;;;10.43;;
29452;SDS011;16424;50.956;5.320;2023-03-01T02:22:02;15.85;;;10.05;;
29452;SDS011;16424;50.956;5.320;2023-03-01T02:24:48;17.90;;;10.38;;
29452;SDS011;16424;50.956;5.320;2023-03-01T02:27:17;14.15;;;9.65;;
29452;SDS011;16424;50.956;5.320;2023-03-01T02:29:49;16.65;;;10.48;;
29452;SDS011;16424;50.956;5.320;2023-03-01T02:32:15;18.38;;;9.73;;
29452;SDS011;16424;50.956;5.320;2023-03-01T02:34:51;13.60;;;9.48;;
29452;SDS011;16424;50.956;5.320;2023-03-01T02:37:18;15.20;;;9.95;;
29452;SDS011;16424;50.956;5.320;2023-03-01T02:39:50;28.67;;;11.30;;
29452;SDS011;16424;50.956;5.320;2023-03-01T02:42:23;15.02;;;9.23;;
29452;SDS011;16424;50.956;5.320;2023-03-01T02:44:53;17.80;;;11.23;;
29452;SDS011;16424;50.956;5.320;2023-03-01T02:47:19;18.90;;;10.90;;
29452;SDS011;16424;50.956;5.320;2023-03-01T02:49:45;17.75;;;10.52;;
29452;SDS011;16424;50.956;5.320;2023-03-01T02:52:26;19.00;;;11.57;;
29452;SDS011;16424;50.956;5.320;2023-03-01T02:57:30;16.45;;;10.80;;
29452;SDS011;16424;50.956;5.320;2023-03-01T02:59:57;13.60;;;9.98;;
29452;SDS011;16424;50.956;5.320;2023-03-01T03:07:31;20.63;;;9.27;;
29452;SDS011;16424;50.956;5.320;2023-03-01T03:09:59;14.68;;;10.05;;
29452;SDS011;16424;50.956;5.320;2023-03-01T03:12:24;19.85;;;11.35;;
29452;SDS011;16424;50.956;5.320;2023-03-01T03:14:50;20.45;;;10.95;;
29452;SDS011;16424;50.956;5.320;2023-03-01T03:17:16;16.58;;;10.25;;
29452;SDS011;16424;50.956;5.320;2023-03-01T03:19:41;14.27;;;10.00;;
29452;SDS011;16424;50.956;5.320;2023-03-01T03:22:11;18.10;;;10.23;;
29452;SDS011;16424;50.956;5.320;2023-03-01T03:24:37;17.00;;;11.30;;
29452;SDS011;16424;50.956;5.320;2023-03-01T03:27:03;17.10;;;11.73;;
29452;SDS011;16424;50.956;5.320;2023-03-01T03:29:30;16.80;;;11.65;;
29452;SDS011;16424;50.956;5.320;2023-03-01T03:31:56;18.73;;;10.27;;
29452;SDS011;16424;50.956;5.320;2023-03-01T03:34:21;14.13;;;10.48;;
29452;SDS011;16424;50.956;5.320;2023-03-01T03:36:48;17.58;;;11.82;;
29452;SDS011;16424;50.956;5.320;2023-03-01T03:39:22;18.88;;;10.70;;
29452;SDS011;16424;50.956;5.320;2023-03-01T03:41:48;19.15;;;11.40;;
29452;SDS011;16424;50.956;5.320;2023-03-01T03:44:14;20.73;;;11.68;;
29452;SDS011;16424;50.956;5.320;2023-03-01T03:46:39;18.85;;;10.80;;
29452;SDS011;16424;50.956;5.320;2023-03-01T03:49:05;17.17;;;10.68;;
29452;SDS011;16424;50.956;5.320;2023-03-01T03:51:30;19.15;;;10.85;;
29452;SDS011;16424;50.956;5.320;2023-03-01T03:53:56;18.35;;;10.27;;
29452;SDS011;16424;50.956;5.320;2023-03-01T03:56:22;17.40;;;11.13;;
29452;SDS011;16424;50.956;5.320;2023-03-01T03:58:51;16.88;;;11.30;;
29452;SDS011;16424;50.956;5.320;2023-03-01T04:01:17;21.58;;;12.52;;
29452;SDS011;16424;50.956;5.320;2023-03-01T04:03:43;20.63;;;11.35;;
29452;SDS011;16424;50.956;5.320;2023-03-01T04:06:12;24.05;;;12.38;;
29452;SDS011;16424;50.956;5.320;2023-03-01T04:08:39;17.50;;;11.98;;
29452;SDS011;16424;50.956;5.320;2023-03-01T04:11:05;16.35;;;11.05;;
29452;SDS011;16424;50.956;5.320;2023-03-01T04:13:50;17.15;;;11.30;;
29452;SDS011;16424;50.956;5.320;2023-03-01T04:16:18;19.65;;;12.15;;
29452;SDS011;16424;50.956;5.320;2023-03-01T04:18:43;18.88;;;11.70;;
29452;SDS011;16424;50.956;5.320;2023-03-01T04:21:09;18.52;;;12.02;;
29452;SDS011;16424;50.956;5.320;2023-03-01T04:23:36;18.75;;;10.70;;
29452;SDS011;16424;50.956;5.320;2023-03-01T04:26:03;21.52;;;12.23;;
29452;SDS011;16424;50.956;5.320;2023-03-01T04:28:32;16.73;;;10.77;;
29452;SDS011;16424;50.956;5.320;2023-03-01T04:31:01;22.08;;;11.95;;
29452;SDS011;16424;50.956;5.320;2023-03-01T04:33:38;23.45;;;12.38;;
29452;SDS011;16424;50.956;5.320;2023-03-01T04:36:05;17.90;;;12.25;;
29452;SDS011;16424;50.956;5.320;2023-03-01T04:38:33;25.85;;;12.00;;
29452;SDS011;16424;50.956;5.320;2023-03-01T04:41:01;18.75;;;11.38;;
29452;SDS011;16424;50.956;5.320;2023-03-01T04:43:28;17.73;;;11.88;;
29452;SDS011;16424;50.956;5.320;2023-03-01T04:45:54;17.35;;;11.93;;
29452;SDS011;16424;50.956;5.320;2023-03-01T04:48:19;20.75;;;11.43;;
29452;SDS011;16424;50.956;5.320;2023-03-01T04:50:45;20.45;;;12.57;;
29452;SDS011;16424;50.956;5.320;2023-03-01T04:53:11;28.45;;;11.48;;
29452;SDS011;16424;50.956;5.320;2023-03-01T04:55:36;21.30;;;12.73;;
29452;SDS011;16424;50.956;5.320;2023-03-01T04:58:02;19.42;;;12.05;;
29452;SDS011;16424;50.956;5.320;2023-03-01T05:00:27;18.23;;;11.18;;
29452;SDS011;16424;50.956;5.320;2023-03-01T05:02:54;23.98;;;12.88;;
29452;SDS011;16424;50.956;5.320;2023-03-01T05:07:53;20.15;;;12.95;;
29452;SDS011;16424;50.956;5.320;2023-03-01T05:10:20;19.13;;;12.18;;
29452;SDS011;16424;50.956;5.320;2023-03-01T05:12:46;19.13;;;12.15;;
29452;SDS011;16424;50.956;5.320;2023-03-01T05:15:11;19.63;;;12.85;;
29452;SDS011;16424;50.956;5.320;2023-03-01T05:17:37;15.35;;;10.82;;
29452;SDS011;16424;50.956;5.320;2023-03-01T05:20:03;21.00;;;11.82;;
29452;SDS011;16424;50.956;5.320;2023-03-01T05:22:34;21.67;;;11.95;;
29452;SDS011;16424;50.956;5.320;2023-03-01T05:25:00;21.42;;;11.90;;
29452;SDS011;16424;50.956;5.320;2023-03-01T05:27:26;25.60;;;13.50;;
29452;SDS011;16424;50.956;5.320;2023-03-01T05:29:52;19.20;;;11.75;;
29452;SDS011;16424;50.956;5.320;2023-03-01T05:32:17;23.70;;;12.70;;
29452;SDS011;16424;50.956;5.320;2023-03-01T05:34:43;22.33;;;13.95;;
29452;SDS011;16424;50.956;5.320;2023-03-01T05:37:11;18.85;;;13.18;;
29452;SDS011;16424;50.956;5.320;2023-03-01T05:39:38;19.00;;;12.63;;
29452;SDS011;16424;50.956;5.320;2023-03-01T05:42:04;21.92;;;13.02;;
29452;SDS011;16424;50.956;5.320;2023-03-01T05:44:30;19.00;;;11.88;;
29452;SDS011;16424;50.956;5.320;2023-03-01T05:46:55;23.02;;;12.88;;
29452;SDS011;16424;50.956;5.320;2023-03-01T05:49:22;23.45;;;13.32;;
29452;SDS011;16424;50.956;5.320;2023-03-01T05:51:52;19.80;;;12.13;;
29452;SDS011;16424;50.956;5.320;2023-03-01T05:54:18;20.23;;;12.23;;
29452;SDS011;16424;50.956;5.320;2023-03-01T05:56:45;21.25;;;13.45;;
29452;SDS011;16424;50.956;5.320;2023-03-01T05:59:11;21.15;;;12.45;;
29452;SDS011;16424;50.956;5.320;2023-03-01T06:01:38;23.52;;;12.90;;
29452;SDS011;16424;50.956;5.320;2023-03-01T06:04:04;20.00;;;12.73;;
29452;SDS011;16424;50.956;5.320;2023-03-01T06:06:33;20.85;;;12.25;;
29452;SDS011;16424;50.956;5.320;2023-03-01T06:08:59;25.85;;;13.73;;
29452;SDS011;16424;50.956;5.320;2023-03-01T06:11:25;22.83;;;12.82;;
29452;SDS011;16424;50.956;5.320;2023-03-01T06:13:51;21.70;;;12.98;;
29452;SDS011;16424;50.956;5.320;2023-03-01T06:16:16;20.25;;;12.52;;
29452;SDS011;16424;50.956;5.320;2023-03-01T06:18:42;22.38;;;13.40;;
29452;SDS011;16424;50.956;5.320;2023-03-01T06:21:08;22.50;;;15.02;;
29452;SDS011;16424;50.956;5.320;2023-03-01T06:23:34;19.25;;;11.90;;
29452;SDS011;16424;50.956;5.320;2023-03-01T06:26:00;23.40;;;13.70;;
29452;SDS011;16424;50.956;5.320;2023-03-01T06:28:29;20.65;;;12.55;;
29452;SDS011;16424;50.956;5.320;2023-03-01T06:30:55;17.65;;;12.32;;
29452;SDS011;16424;50.956;5.320;2023-03-01T06:33:21;20.90;;;12.55;;
29452;SDS011;16424;50.956;5.320;2023-03-01T06:35:49;18.98;;;12.35;;
29452;SDS011;16424;50.956;5.320;2023-03-01T06:38:15;23.95;;;12.57;;
29452;SDS011;16424;50.956;5.320;2023-03-01T06:40:43;21.77;;;14.07;;
29452;SDS011;16424;50.956;5.320;2023-03-01T06:43:09;27.00;;;13.20;;
29452;SDS011;16424;50.956;5.320;2023-03-01T06:45:35;22.58;;;12.77;;
29452;SDS011;16424;50.956;5.320;2023-03-01T06:48:05;27.25;;;12.98;;
29452;SDS011;16424;50.956;5.320;2023-03-01T06:50:32;22.48;;;13.50;;
29452;SDS011;16424;50.956;5.320;2023-03-01T06:53:00;24.63;;;13.75;;
29452;SDS011;16424;50.956;5.320;2023-03-01T06:55:27;21.10;;;12.27;;
29452;SDS011;16424;50.956;5.320;2023-03-01T06:57:54;17.85;;;12.05;;
29452;SDS011;16424;50.956;5.320;2023-03-01T07:00:24;25.30;;;12.80;;
29452;SDS011;16424;50.956;5.320;2023-03-01T07:02:50;21.85;;;12.98;;
29452;SDS011;16424;50.956;5.320;2023-03-01T07:05:16;19.02;;;12.43;;
29452;SDS011;16424;50.956;5.320;2023-03-01T07:07:42;20.95;;;12.05;;
29452;SDS011;16424;50.956;5.320;2023-03-01T07:10:08;24.90;;;12.50;;
29452;SDS011;16424;50.956;5.320;2023-03-01T07:12:34;20.33;;;12.32;;
29452;SDS011;16424;50.956;5.320;2023-03-01T07:15:00;24.00;;;12.98;;
29452;SDS011;16424;50.956;5.320;2023-03-01T07:17:26;21.67;;;12.38;;
29452;SDS011;16424;50.956;5.320;2023-03-01T07:19:51;22.08;;;12.10;;
29452;SDS011;16424;50.956;5.320;2023-03-01T07:22:17;19.50;;;11.32;;
29452;SDS011;16424;50.956;5.320;2023-03-01T07:24:43;19.77;;;11.13;;
29452;SDS011;16424;50.956;5.320;2023-03-01T07:27:09;18.48;;;11.13;;
29452;SDS011;16424;50.956;5.320;2023-03-01T07:29:35;16.27;;;9.98;;
29452;SDS011;16424;50.956;5.320;2023-03-01T07:32:04;20.25;;;10.82;;
29452;SDS011;16424;50.956;5.320;2023-03-01T07:34:30;20.23;;;10.93;;
29452;SDS011;16424;50.956;5.320;2023-03-01T07:36:56;18.27;;;11.70;;
29452;SDS011;16424;50.956;5.320;2023-03-01T07:39:22;16.35;;;9.55;;
29452;SDS011;16424;50.956;5.320;2023-03-01T07:41:49;16.42;;;10.20;;
29452;SDS011;16424;50.956;5.320;2023-03-01T07:44:16;23.20;;;10.85;;
29452;SDS011;16424;50.956;5.320;2023-03-01T07:46:42;22.35;;;11.60;;
29452;SDS011;16424;50.956;5.320;2023-03-01T07:49:08;15.45;;;10.50;;
29452;SDS011;16424;50.956;5.320;2023-03-01T07:51:34;21.52;;;10.35;;
29452;SDS011;16424;50.956;5.320;2023-03-01T07:54:00;22.85;;;9.73;;
29452;SDS011;16424;50.956;5.320;2023-03-01T07:56:25;17.95;;;9.13;;
29452;SDS011;16424;50.956;5.320;2023-03-01T07:58:51;19.50;;;10.15;;
29452;SDS011;16424;50.956;5.320;2023-03-01T08:01:18;15.93;;;11.20;;
29452;SDS011;16424;50.956;5.320;2023-03-01T08:03:45;17.05;;;10.20;;
29452;SDS011;16424;50.956;5.320;2023-03-01T08:06:12;20.77;;;9.80;;
29452;SDS011;16424;50.956;5.320;2023-03-01T08:08:40;16.45;;;9.95;;
29452;SDS011;16424;50.956;5.320;2023-03-01T08:11:07;17.20;;;10.05;;
29452;SDS011;16424;50.956;5.320;2023-03-01T08:13:34;17.38;;;10.50;;
29452;SDS011;16424;50.956;5.320;2023-03-01T08:16:01;22.38;;;10.60;;
29452;SDS011;16424;50.956;5.320;2023-03-01T08:18:31;20.92;;;11.98;;
29452;SDS011;16424;50.956;5.320;2023-03-01T08:21:07;20.90;;;10.48;;
29452;SDS011;16424;50.956;5.320;2023-03-01T08:23:35;15.60;;;10.23;;
29452;SDS011;16424;50.956;5.320;2023-03-01T08:28:32;14.43;;;8.85;;
29452;SDS011;16424;50.956;5.320;2023-03-01T08:30:58;12.82;;;8.70;;
29452;SDS011;16424;50.956;5.320;2023-03-01T08:33:24;16.60;;;9.07;;
29452;SDS011;16424;50.956;5.320;2023-03-01T08:35:50;18.10;;;10.60;;
29452;SDS011;16424;50.956;5.320;2023-03-01T08:38:15;16.08;;;9.65;;
29452;SDS011;16424;50.956;5.320;2023-03-01T08:40:41;18.85;;;9.80;;
29452;SDS011;16424;50.956;5.320;2023-03-01T08:43:06;17.65;;;9.88;;
29452;SDS011;16424;50.956;5.320;2023-03-01T08:45:32;19.15;;;9.75;;
29452;SDS011;16424;50.956;5.320;2023-03-01T08:47:58;24.88;;;11.07;;
29452;SDS011;16424;50.956;5.320;2023-03-01T08:50:23;16.13;;;9.45;;
29452;SDS011;16424;50.956;5.320;2023-03-01T08:52:49;18.73;;;10.15;;
29452;SDS011;16424;50.956;5.320;2023-03-01T08:55:15;15.30;;;9.55;;
29452;SDS011;16424;50.956;5.320;2023-03-01T08:57:42;15.68;;;10.55;;
29452;SDS011;16424;50.956;5.320;2023-03-01T09:00:08;18.08;;;9.27;;
29452;SDS011;16424;50.956;5.320;2023-03-01T09:02:36;16.65;;;9.50;;
29452;SDS011;16424;50.956;5.320;2023-03-01T09:05:02;15.63;;;9.30;;
29452;SDS011;16424;50.956;5.320;2023-03-01T09:07:28;17.77;;;10.60;;
29452;SDS011;16424;50.956;5.320;2023-03-01T09:09:54;14.55;;;9.30;;
29452;SDS011;16424;50.956;5.320;2023-03-01T09:12:20;14.43;;;8.88;;
29452;SDS011;16424;50.956;5.320;2023-03-01T09:14:45;16.08;;;9.02;;
29452;SDS011;16424;50.956;5.320;2023-03-01T09:17:11;15.07;;;9.73;;
29452;SDS011;16424;50.956;5.320;2023-03-01T09:19:37;16.45;;;9.98;;
29452;SDS011;16424;50.956;5.320;2023-03-01T09:22:03;16.63;;;9.73;;
29452;SDS011;16424;50.956;5.320;2023-03-01T09:24:29;19.38;;;9.88;;
29452;SDS011;16424;50.956;5.320;2023-03-01T09:26:55;14.38;;;9.68;;
29452;SDS011;16424;50.956;5.320;2023-03-01T09:29:22;14.38;;;8.50;;
29452;SDS011;16424;50.956;5.320;2023-03-01T09:31:48;17.20;;;10.30;;
29452;SDS011;16424;50.956;5.320;2023-03-01T09:34:13;22.77;;;11.00;;
29452;SDS011;16424;50.956;5.320;2023-03-01T09:36:41;20.08;;;9.48;;
29452;SDS011;16424;50.956;5.320;2023-03-01T09:39:07;16.02;;;9.73;;
29452;SDS011;16424;50.956;5.320;2023-03-01T09:41:43;14.48;;;10.13;;
29452;SDS011;16424;50.956;5.320;2023-03-01T09:46:38;14.40;;;9.10;;
29452;SDS011;16424;50.956;5.320;2023-03-01T09:49:14;18.15;;;11.10;;
29452;SDS011;16424;50.956;5.320;2023-03-01T09:51:46;17.45;;;10.43;;
29452;SDS011;16424;50.956;5.320;2023-03-01T09:54:27;20.52;;;10.40;;
29452;SDS011;16424;50.956;5.320;2023-03-01T09:56:57;16.65;;;9.45;;
29452;SDS011;16424;50.956;5.320;2023-03-01T10:07:30;16.90;;;9.68;;
29452;SDS011;16424;50.956;5.320;2023-03-01T10:10:23;19.55;;;9.18;;
29452;SDS011;16424;50.956;5.320;2023-03-01T10:12:58;19.27;;;9.52;;
29452;SDS011;16424;50.956;5.320;2023-03-01T10:15:33;15.32;;;9.70;;
29452;SDS011;16424;50.956;5.320;2023-03-01T10:18:04;18.20;;;10.70;;
29452;SDS011;16424;50.956;5.320;2023-03-01T10:20:44;17.75;;;11.20;;
29452;SDS011;16424;50.956;5.320;2023-03-01T10:23:22;18.55;;;11.25;;
29452;SDS011;16424;50.956;5.320;2023-03-01T10:30:51;23.58;;;11.25;;
29452;SDS011;16424;50.956;5.320;2023-03-01T10:33:22;17.23;;;11.45;;
29452;SDS011;16424;50.956;5.320;2023-03-01T10:35:50;18.33;;;11.50;;
29452;SDS011;16424;50.956;5.320;2023-03-01T10:38:16;18.38;;;10.98;;
29452;SDS011;16424;50.956;5.320;2023-03-01T10:40:53;17.70;;;11.63;;
29452;SDS011;16424;50.956;5.320;2023-03-01T10:43:47;20.00;;;10.88;;
29452;SDS011;16424;50.956;5.320;2023-03-01T10:46:22;21.00;;;12.30;;
29452;SDS011;16424;50.956;5.320;2023-03-01T10:51:47;17.38;;;10.52;;
29452;SDS011;16424;50.956;5.320;2023-03-01T10:54:28;17.85;;;10.90;;
29452;SDS011;16424;50.956;5.320;2023-03-01T10:56:56;20.08;;;11.23;;
29452;SDS011;16424;50.956;5.320;2023-03-01T10:59:29;18.50;;;10.32;;
29452;SDS011;16424;50.956;5.320;2023-03-01T11:06:59;17.90;;;11.52;;
29452;SDS011;16424;50.956;5.320;2023-03-01T11:09:26;20.60;;;11.93;;
29452;SDS011;16424;50.956;5.320;2023-03-01T11:12:03;19.40;;;11.27;;
29452;SDS011;16424;50.956;5.320;2023-03-01T11:14:33;20.30;;;11.65;;
29452;SDS011;16424;50.956;5.320;2023-03-01T11:17:44;22.52;;;11.13;;
29452;SDS011;16424;50.956;5.320;2023-03-01T11:19:59;22.05;;;10.98;;
29452;SDS011;16424;50.956;5.320;2023-03-01T11:22:25;19.08;;;11.13;;
29452;SDS011;16424;50.956;5.320;2023-03-01T11:24:53;16.92;;;11.40;;
29452;SDS011;16424;50.956;5.320;2023-03-01T11:30:09;21.08;;;12.60;;
29452;SDS011;16424;50.956;5.320;2023-03-01T11:32:47;26.58;;;11.43;;
29452;SDS011;16424;50.956;5.320;2023-03-01T11:35:28;15.60;;;9.88;;
29452;SDS011;16424;50.956;5.320;2023-03-01T11:49:57;17.38;;;9.32;;
29452;SDS011;16424;50.956;5.320;2023-03-01T11:52:07;18.67;;;10.50;;
29452;SDS011;16424;50.956;5.320;2023-03-01T12:00:36;21.55;;;10.85;;
29452;SDS011;16424;50.956;5.320;2023-03-01T12:06:32;17.60;;;9.35;;
29452;SDS011;16424;50.956;5.320;2023-03-01T12:28:18;16.45;;;10.60;;
29452;SDS011;16424;50.956;5.320;2023-03-01T12:39:24;14.45;;;9.95;;
29452;SDS011;16424;50.956;5.320;2023-03-01T12:42:04;14.15;;;9.75;;
29452;SDS011;16424;50.956;5.320;2023-03-01T12:50:21;22.40;;;10.35;;
29452;SDS011;16424;50.956;5.320;2023-03-01T12:52:53;19.02;;;10.95;;
29452;SDS011;16424;50.956;5.320;2023-03-01T12:55:34;15.98;;;9.85;;
29452;SDS011;16424;50.956;5.320;2023-03-01T13:01:01;18.92;;;10.38;;
29452;SDS011;16424;50.956;5.320;2023-03-01T13:06:15;20.15;;;10.25;;
29452;SDS011;16424;50.956;5.320;2023-03-01T13:08:58;17.83;;;8.65;;
29452;SDS011;16424;50.956;5.320;2023-03-01T13:11:34;14.15;;;9.85;;
29452;SDS011;16424;50.956;5.320;2023-03-01T13:16:53;15.30;;;8.75;;
29452;SDS011;16424;50.956;5.320;2023-03-01T13:19:23;14.82;;;9.18;;
29452;SDS011;16424;50.956;5.320;2023-03-01T13:21:51;13.65;;;8.85;;
29452;SDS011;16424;50.956;5.320;2023-03-01T13:24:39;18.30;;;10.20;;
29452;SDS011;16424;50.956;5.320;2023-03-01T13:32:30;17.40;;;8.65;;
29452;SDS011;16424;50.956;5.320;2023-03-01T13:37:41;13.60;;;8.57;;
29452;SDS011;16424;50.956;5.320;2023-03-01T13:42:43;15.73;;;9.60;;
29452;SDS011;16424;50.956;5.320;2023-03-01T13:48:02;18.40;;;10.40;;
29452;SDS011;16424;50.956;5.320;2023-03-01T13:50:36;17.42;;;10.00;;
29452;SDS011;16424;50.956;5.320;2023-03-01T13:53:09;18.02;;;10.52;;
29452;SDS011;16424;50.956;5.320;2023-03-01T13:55:42;13.57;;;9.35;;
29452;SDS011;16424;50.956;5.320;2023-03-01T13:58:18;11.95;;;8.60;;
29452;SDS011;16424;50.956;5.320;2023-03-01T14:01:03;19.58;;;9.63;;
29452;SDS011;16424;50.956;5.320;2023-03-01T14:03:31;14.25;;;9.02;;
29452;SDS011;16424;50.956;5.320;2023-03-01T14:06:04;15.50;;;8.35;;
29452;SDS011;16424;50.956;5.320;2023-03-01T14:08:45;11.75;;;8.23;;
29452;SDS011;16424;50.956;5.320;2023-03-01T14:16:50;15.50;;;9.68;;
29452;SDS011;16424;50.956;5.320;2023-03-01T14:19:33;19.20;;;9.68;;
29452;SDS011;16424;50.956;5.320;2023-03-01T14:24:54;13.93;;;8.68;;
29452;SDS011;16424;50.956;5.320;2023-03-01T14:27:27;13.23;;;8.38;;
29452;SDS011;16424;50.956;5.320;2023-03-01T14:32:37;12.68;;;7.88;;
29452;SDS011;16424;50.956;5.320;2023-03-01T14:35:18;15.18;;;8.85;;
29452;SDS011;16424;50.956;5.320;2023-03-01T14:37:48;17.17;;;8.97;;
29452;SDS011;16424;50.956;5.320;2023-03-01T14:40:28;11.13;;;8.25;;
29452;SDS011;16424;50.956;5.320;2023-03-01T14:42:57;14.38;;;8.77;;
29452;SDS011;16424;50.956;5.320;2023-03-01T14:45:25;12.98;;;8.00;;
29452;SDS011;16424;50.956;5.320;2023-03-01T14:47:53;14.23;;;8.38;;
29452;SDS011;16424;50.956;5.320;2023-03-01T14:50:25;17.67;;;8.48;;
29452;SDS011;16424;50.956;5.320;2023-03-01T14:52:54;16.00;;;8.07;;
29452;SDS011;16424;50.956;5.320;2023-03-01T14:55:32;14.40;;;8.55;;
29452;SDS011;16424;50.956;5.320;2023-03-01T14:58:03;16.40;;;8.98;;
29452;SDS011;16424;50.956;5.320;2023-03-01T15:00:31;18.17;;;8.15;;
29452;SDS011;16424;50.956;5.320;2023-03-01T15:03:07;13.85;;;8.43;;
29452;SDS011;16424;50.956;5.320;2023-03-01T15:05:38;21.08;;;8.35;;
29452;SDS011;16424;50.956;5.320;2023-03-01T15:08:05;13.75;;;8.02;;
29452;SDS011;16424;50.956;5.320;2023-03-01T15:10:35;11.88;;;8.00;;
29452;SDS011;16424;50.956;5.320;2023-03-01T15:15:50;11.27;;;7.20;;
29452;SDS011;16424;50.956;5.320;2023-03-01T15:18:25;10.73;;;7.72;;
29452;SDS011;16424;50.956;5.320;2023-03-01T15:20:53;12.27;;;6.38;;
29452;SDS011;16424;50.956;5.320;2023-03-01T15:23:26;11.00;;;7.53;;
29452;SDS011;16424;50.956;5.320;2023-03-01T15:25:54;13.80;;;7.30;;
29452;SDS011;16424;50.956;5.320;2023-03-01T15:28:22;13.52;;;6.88;;
29452;SDS011;16424;50.956;5.320;2023-03-01T15:30:54;10.15;;;6.75;;
29452;SDS011;16424;50.956;5.320;2023-03-01T15:33:33;13.40;;;6.63;;
29452;SDS011;16424;50.956;5.320;2023-03-01T15:36:02;11.07;;;6.65;;
29452;SDS011;16424;50.956;5.320;2023-03-01T15:41:45;10.60;;;6.65;;
29452;SDS011;16424;50.956;5.320;2023-03-01T15:44:15;11.53;;;6.93;;
29452;SDS011;16424;50.956;5.320;2023-03-01T15:46:46;12.35;;;5.90;;
29452;SDS011;16424;50.956;5.320;2023-03-01T15:51:51;17.23;;;6.85;;
29452;SDS011;16424;50.956;5.320;2023-03-01T15:54:20;10.15;;;6.03;;
29452;SDS011;16424;50.956;5.320;2023-03-01T15:56:48;10.77;;;6.43;;
29452;SDS011;16424;50.956;5.320;2023-03-01T15:59:14;10.30;;;6.63;;
29452;SDS011;16424;50.956;5.320;2023-03-01T16:01:40;13.27;;;6.82;;
29452;SDS011;16424;50.956;5.320;2023-03-01T16:04:06;8.60;;;5.72;;
29452;SDS011;16424;50.956;5.320;2023-03-01T16:06:34;11.10;;;6.55;;
29452;SDS011;16424;50.956;5.320;2023-03-01T16:09:00;14.88;;;7.28;;
29452;SDS011;16424;50.956;5.320;2023-03-01T16:11:27;10.30;;;6.75;;
29452;SDS011;16424;50.956;5.320;2023-03-01T16:13:53;11.13;;;5.85;;
29452;SDS011;16424;50.956;5.320;2023-03-01T16:16:18;11.55;;;6.30;;
29452;SDS011;16424;50.956;5.320;2023-03-01T16:18:45;10.15;;;6.10;;
29452;SDS011;16424;50.956;5.320;2023-03-01T16:21:16;12.27;;;6.68;;
29452;SDS011;16424;50.956;5.320;2023-03-01T16:23:50;12.77;;;6.30;;
29452;SDS011;16424;50.956;5.320;2023-03-01T16:26:16;12.38;;;6.38;;
29452;SDS011;16424;50.956;5.320;2023-03-01T16:28:43;13.20;;;6.25;;
29452;SDS011;16424;50.956;5.320;2023-03-01T16:31:10;13.68;;;6.75;;
29452;SDS011;16424;50.956;5.320;2023-03-01T16:33:39;16.63;;;6.53;;
29452;SDS011;16424;50.956;5.320;2023-03-01T16:36:08;12.20;;;6.22;;
29452;SDS011;16424;50.956;5.320;2023-03-01T16:38:35;12.18;;;7.35;;
29452;SDS011;16424;50.956;5.320;2023-03-01T16:41:01;9.68;;;6.60;;
29452;SDS011;16424;50.956;5.320;2023-03-01T16:43:27;11.55;;;5.40;;
29452;SDS011;16424;50.956;5.320;2023-03-01T16:45:53;11.63;;;6.32;;
29452;SDS011;16424;50.956;5.320;2023-03-01T16:48:19;12.73;;;6.45;;
29452;SDS011;16424;50.956;5.320;2023-03-01T16:50:45;9.90;;;6.03;;
29452;SDS011;16424;50.956;5.320;2023-03-01T16:53:19;11.15;;;5.25;;
29452;SDS011;16424;50.956;5.320;2023-03-01T16:55:52;11.65;;;6.65;;